createdAt,value
2019-05-15T00:02:14.968Z,7.3
2019-05-15T00:07:21.881Z,7.9
2019-05-15T00:12:28.386Z,7.8
2019-05-15T00:17:33.695Z,6.3
2019-05-15T00:22:39.032Z,7.5
2019-05-15T00:27:44.918Z,6.4
2019-05-15T00:32:52.915Z,7.6
2019-05-15T00:37:58.564Z,5.9
2019-05-15T00:48:11.504Z,5.5
2019-05-15T00:53:18.923Z,5.6
2019-05-15T00:58:25.067Z,6.6
2019-05-15T01:03:32.756Z,4.8
2019-05-15T01:08:39.247Z,5
2019-05-15T01:13:44.901Z,5.5
2019-05-15T01:18:52.588Z,4.7
2019-05-15T01:23:58.910Z,5
2019-05-15T01:29:04.514Z,5.8
2019-05-15T01:34:11.819Z,5.2
2019-05-15T01:39:18.434Z,5.4
2019-05-15T01:44:24.318Z,4.6
2019-05-15T01:49:31.545Z,5.6
2019-05-15T01:54:38.281Z,4.9
2019-05-15T01:59:54.693Z,4.9
2019-05-15T02:04:45.499Z,4.5
2019-05-15T02:09:53.400Z,4.3
2019-05-15T02:14:58.805Z,7.2
2019-05-15T02:20:04.215Z,4.6
2019-05-15T02:25:12.028Z,4.4
2019-05-15T02:30:27.616Z,4.3
2019-05-15T02:35:22.995Z,4.3
2019-05-15T02:40:29.391Z,4.5
2019-05-15T02:45:37.608Z,4.7
2019-05-15T02:50:39.025Z,4.3
2019-05-15T02:55:44.594Z,4.3
2019-05-15T03:00:53.785Z,4.1
2019-05-15T03:05:53.104Z,4.3
2019-05-15T03:10:59.191Z,4.3
2019-05-15T03:16:05.313Z,4.7
2019-05-15T03:21:13.705Z,4.2
2019-05-15T03:26:14.372Z,5.4
2019-05-15T03:31:39.849Z,4
2019-05-15T03:36:31.010Z,3.7
2019-05-15T03:41:29.605Z,4.3
2019-05-15T03:46:35.159Z,7.7
2019-05-15T03:51:40.994Z,4.3
2019-05-15T03:56:44.209Z,3.8
2019-05-15T04:01:53.546Z,3.6
2019-05-15T04:06:59.470Z,3.6
2019-05-15T04:12:05.241Z,3.3
2019-05-15T04:17:13.862Z,3.3
2019-05-15T04:22:22.676Z,5.2
2019-05-15T04:27:28.935Z,2.9
2019-05-15T04:32:34.741Z,3.3
2019-05-15T04:37:43.409Z,4.5
2019-05-15T04:42:52.138Z,2.8
2019-05-15T04:47:58.742Z,2.5
2019-05-15T04:53:04.236Z,3
2019-05-15T04:58:13.324Z,3.3
2019-05-15T05:03:13.301Z,2.9
2019-05-15T05:08:19.960Z,6.9
2019-05-15T05:13:28.398Z,2.8
2019-05-15T05:18:34.021Z,3.2
2019-05-15T05:23:38.058Z,2.5
2019-05-15T05:28:37.916Z,4.3
2019-05-15T05:33:43.215Z,3.1
2019-05-15T05:38:49.301Z,3.2
2019-05-15T05:43:55.009Z,3.5
2019-05-15T05:49:02.337Z,2.9
2019-05-15T05:54:08.388Z,2.9
2019-05-15T05:59:13.762Z,3.2
2019-05-15T06:04:21.289Z,3.2
2019-05-15T06:09:27.761Z,4.5
2019-05-15T06:14:33.835Z,4
2019-05-15T06:19:41.621Z,3.4
2019-05-15T06:24:48.486Z,3.5
2019-05-15T06:29:53.608Z,4.1
2019-05-15T06:35:00.661Z,3.5
2019-05-15T06:40:05.700Z,4.8
2019-05-15T06:45:13.249Z,4.1
2019-05-15T06:50:18.398Z,4.4
2019-05-15T06:55:25.867Z,4.6
2019-05-15T07:00:33.328Z,4
2019-05-15T07:05:33.703Z,3
2019-05-15T07:10:41.055Z,3.2
2019-05-15T07:15:46.327Z,3.7
2019-05-15T07:20:54.172Z,2.7
2019-05-15T07:26:01.677Z,3.8
2019-05-15T07:31:11.223Z,3.8
2019-05-15T07:36:08.344Z,2.9
2019-05-15T07:41:13.638Z,3.4
2019-05-15T07:46:21.149Z,3.4
2019-05-15T07:51:28.636Z,4.9
2019-05-15T07:56:34.166Z,3.1
2019-05-15T08:01:41.660Z,2.6
2019-05-15T08:06:48.879Z,3.5
2019-05-15T08:11:54.325Z,2.9
2019-05-15T08:17:02.910Z,3.1
2019-05-15T08:22:14.996Z,3.4
2019-05-15T08:27:12.779Z,2.9
2019-05-15T08:32:18.972Z,3.2
2019-05-15T08:37:24.758Z,3.5
2019-05-15T08:42:32.579Z,3.4
2019-05-15T08:47:38.545Z,3.6
2019-05-15T08:52:44.091Z,4
2019-05-15T08:57:55.398Z,3.9
2019-05-15T09:02:58.157Z,3.8
2019-05-15T09:08:03.536Z,3.6
2019-05-15T09:13:13.136Z,3.7
2019-05-15T09:18:20.036Z,4
2019-05-15T09:23:25.666Z,3.8
2019-05-15T09:28:33.640Z,3.5
2019-05-15T09:33:41.658Z,4.2
2019-05-15T09:38:48.845Z,4.3
2019-05-15T09:43:54.165Z,4.5
2019-05-15T09:49:01.515Z,4
2019-05-15T09:54:08.065Z,4.1
2019-05-15T09:59:13.560Z,3.2
2019-05-15T10:04:21.439Z,3.1
2019-05-15T10:09:28.395Z,3.5
2019-05-15T10:14:33.852Z,3.2
2019-05-15T10:19:41.458Z,3.3
2019-05-15T10:24:50.759Z,3.8
2019-05-15T10:29:58.465Z,3.6
2019-05-15T10:35:04.372Z,2.9
2019-05-15T10:40:06.120Z,3
2019-05-15T10:45:13.596Z,3.9
2019-05-15T10:50:19.192Z,2.8
2019-05-15T10:55:24.731Z,3
2019-05-15T11:00:32.613Z,3.5
2019-05-15T11:05:44.841Z,3.7
2019-05-15T11:10:42.718Z,3.9
2019-05-15T11:15:49.066Z,3.7
2019-05-15T11:20:54.793Z,3.9
2019-05-15T11:26:02.932Z,2.9
2019-05-15T11:31:10.264Z,2.4
2019-05-15T11:36:18.334Z,3
2019-05-15T11:41:23.723Z,2.7
2019-05-15T11:46:32.138Z,1.9
2019-05-15T11:51:38.348Z,2
2019-05-15T11:56:43.715Z,2.2
2019-05-15T12:01:51.594Z,2.6
2019-05-15T12:07:02.556Z,2.5
2019-05-15T12:12:08.795Z,2.1
2019-05-15T12:17:15.423Z,1.7
2019-05-15T12:22:23.451Z,3.2
2019-05-15T12:27:31.553Z,1.6
2019-05-15T12:32:39.437Z,2.7
2019-05-15T12:37:45.471Z,1.5
2019-05-15T13:03:14.201Z,1.6
2019-05-15T13:08:21.692Z,1.4
2019-05-15T13:13:28.401Z,1.2
2019-05-15T13:18:33.630Z,1.3
2019-05-15T13:23:38.745Z,1.2
2019-05-15T13:28:44.453Z,2.6
2019-05-15T13:33:52.328Z,1.8
2019-05-15T13:38:57.805Z,2.1
2019-05-15T13:44:03.265Z,1.3
2019-05-15T13:49:08.511Z,1.6
2019-05-15T13:54:13.327Z,2.4
2019-05-15T13:59:18.400Z,2.7
2019-05-15T14:04:23.402Z,2.2
2019-05-15T14:09:33.215Z,2.1
2019-05-15T14:14:38.532Z,2
2019-05-15T14:19:43.781Z,2.2
2019-05-15T14:24:51.496Z,2.4
2019-05-15T14:30:01.466Z,2.7
2019-05-15T14:35:08.994Z,2
2019-05-15T14:40:14.679Z,2
2019-05-15T14:45:22.752Z,1.9
2019-05-15T14:50:28.480Z,2.1
2019-05-15T14:55:34.900Z,2.4
2019-05-15T15:00:41.212Z,2.1
2019-05-15T15:05:38.742Z,3.3
2019-05-15T15:10:45.225Z,2
2019-05-15T15:15:50.464Z,3.1
2019-05-15T15:20:57.621Z,1.9
2019-05-15T15:26:03.536Z,2.2
2019-05-15T15:31:13.219Z,2.5
2019-05-15T15:36:22.033Z,2.1
2019-05-15T15:41:28.570Z,3.7
2019-05-15T15:46:33.900Z,2
2019-05-15T15:51:42.263Z,2.1
2019-05-15T15:56:48.497Z,1.8
2019-05-15T16:01:54.154Z,1.8
2019-05-15T16:06:59.122Z,1.5
2019-05-15T16:12:09.246Z,2.2
2019-05-15T16:17:15.027Z,2.8
2019-05-15T16:22:22.690Z,1.8
2019-05-15T16:27:28.680Z,2.2
2019-05-15T16:32:29.095Z,2.2
2019-05-15T16:37:38.442Z,1.8
2019-05-15T16:42:44.113Z,1.7
2019-05-15T16:47:51.421Z,2.1
2019-05-15T16:52:58.373Z,1.7
2019-05-15T16:58:03.832Z,1.9
2019-05-15T17:03:14.781Z,1.7
2019-05-15T17:08:13.900Z,2.2
2019-05-15T17:13:21.305Z,1.7
2019-05-15T17:18:26.337Z,1.3
2019-05-15T17:23:31.596Z,1.3
2019-05-15T17:28:38.294Z,1.9
2019-05-15T17:33:43.814Z,2.6
2019-05-15T17:38:51.930Z,2.2
2019-05-15T17:43:57.923Z,3
2019-05-15T17:49:07.976Z,3.6
2019-05-15T17:54:10.324Z,3.6
2019-05-15T17:59:17.340Z,4.5
2019-05-15T18:04:22.994Z,3.4
2019-05-15T18:09:28.069Z,2.9
2019-05-15T18:14:37.976Z,2.2
2019-05-15T18:19:43.505Z,1.7
2019-05-15T18:24:48.503Z,2.3
2019-05-15T18:29:59.272Z,2.6
2019-05-15T18:34:58.635Z,4.2
2019-05-15T18:40:06.156Z,2.8
2019-05-15T18:45:04.953Z,3
2019-05-15T18:50:12.879Z,3.1
2019-05-15T18:55:18.839Z,3.3
2019-05-15T19:00:28.499Z,3.3
2019-05-15T19:05:24.816Z,2.4
2019-05-15T19:10:32.760Z,3.6
2019-05-15T19:15:38.101Z,3
2019-05-15T19:20:43.463Z,3.8
2019-05-15T19:25:51.663Z,3.1
2019-05-15T19:30:58.729Z,2.3
2019-05-15T19:36:04.905Z,2.9
2019-05-15T19:41:12.541Z,2.5
2019-05-15T19:46:18.124Z,2.4
2019-05-15T19:51:25.716Z,2.2
2019-05-15T19:56:33.616Z,2.3
2019-05-15T20:01:38.660Z,2.5
2019-05-15T20:06:43.874Z,2.4
2019-05-15T20:11:49.494Z,3.2
2019-05-15T20:16:53.330Z,2.7
2019-05-15T20:22:01.796Z,2.9
2019-05-15T20:27:05.590Z,3.1
2019-05-15T20:32:12.905Z,3.1
2019-05-15T20:42:21.843Z,2.3
2019-05-15T20:47:28.102Z,2.1
2019-05-15T20:52:31.948Z,2.5
2019-05-15T20:57:40.236Z,2.2
2019-05-15T21:02:48.540Z,2.5
2019-05-15T21:07:54.277Z,2.7
2019-05-15T21:12:59.630Z,1.7
2019-05-15T21:18:13.404Z,1.9
2019-05-15T21:23:09.017Z,1.7
2019-05-15T21:28:14.401Z,1.8
2019-05-15T21:33:19.631Z,2.7
2019-05-15T21:38:27.856Z,2.3
2019-05-15T21:43:33.657Z,1.4
2019-05-15T21:48:38.911Z,1.8
2019-05-15T21:53:43.940Z,2
2019-05-15T21:58:51.381Z,2.1
2019-05-15T22:03:58.871Z,1.9
2019-05-15T22:09:04.585Z,1.9
2019-05-15T22:14:12.127Z,1.7
2019-05-15T22:19:18.043Z,1.8
2019-05-15T22:24:25.548Z,2
2019-05-15T22:29:33.048Z,2.3
2019-05-15T22:34:40.972Z,2.1
2019-05-15T22:39:46.108Z,2
2019-05-15T22:44:51.072Z,2.2
2019-05-15T22:49:58.902Z,2.6
2019-05-15T22:55:04.621Z,2.3
2019-05-15T23:00:09.944Z,2.1
2019-05-15T23:05:24.701Z,2.2
2019-05-15T23:10:16.477Z,2.5
2019-05-15T23:15:21.467Z,3
2019-05-15T23:20:28.464Z,2.2
2019-05-15T23:25:33.802Z,2.6
2019-05-15T23:30:41.092Z,2.3
2019-05-15T23:35:48.356Z,3.1
2019-05-15T23:46:01.631Z,2.6
2019-05-15T23:51:08.462Z,3
2019-05-15T23:56:13.913Z,3
